createdAt,value
2022-09-07T00:00:43.210Z,69.69
2022-09-07T00:03:10.202Z,70.05
2022-09-07T00:05:48.087Z,70.23
2022-09-07T00:08:16.634Z,70.66
2022-09-07T00:10:58.805Z,71.27
2022-09-07T00:13:28.645Z,71.16
2022-09-07T00:15:55.750Z,71.48
2022-09-07T00:18:22.444Z,71.58
2022-09-07T00:21:02.045Z,71.81
2022-09-07T00:23:30.230Z,71.88
2022-09-07T00:26:01.983Z,71.79
2022-09-07T00:28:29.399Z,72.26
2022-09-07T00:30:56.067Z,72.17
2022-09-07T00:33:22.791Z,72.30
2022-09-07T00:35:49.511Z,72.15
2022-09-07T00:38:16.397Z,72.23
2022-09-07T00:40:43.507Z,72.73
2022-09-07T00:43:17.490Z,73.03
2022-09-07T00:45:44.182Z,72.97
2022-09-07T00:48:19.999Z,72.68
2022-09-07T01:29:40.425Z,75.70
2022-09-07T01:46:26.958Z,76.11
2022-09-07T01:48:57.963Z,75.74
2022-09-07T01:51:31.552Z,75.94
2022-09-07T01:54:03.160Z,75.72
2022-09-07T01:56:52.085Z,75.81
2022-09-07T01:59:27.395Z,76.15
2022-09-07T02:02:02.057Z,76.04
2022-09-07T02:04:37.719Z,75.62
2022-09-07T02:07:17.305Z,76.09
2022-09-07T02:09:56.968Z,75.81
2022-09-07T02:12:31.054Z,75.98
2022-09-07T02:22:12.191Z,76.28
2022-09-07T02:24:43.200Z,76.03
2022-09-07T02:27:15.135Z,76.47
2022-09-07T02:29:43.696Z,76.58
2022-09-07T02:32:10.429Z,76.65
2022-09-07T02:34:37.278Z,76.42
2022-09-07T02:37:07.905Z,76.59
2022-09-07T02:39:35.057Z,76.28
2022-09-07T02:42:01.860Z,76.94
2022-09-07T02:44:35.663Z,76.83
2022-09-07T02:47:24.375Z,76.40
2022-09-07T02:50:09.251Z,76.91
2022-09-07T02:53:01.963Z,76.80
2022-09-07T02:55:34.538Z,76.74
2022-09-07T02:58:07.250Z,77.14
2022-09-07T03:00:43.468Z,77.55
2022-09-07T03:14:16.271Z,78.20
2022-09-07T03:16:43.465Z,78.22
2022-09-07T03:19:10.180Z,78.23
2022-09-07T03:21:36.805Z,78.81
2022-09-07T03:24:03.690Z,79.01
2022-09-07T03:26:30.419Z,78.24
2022-09-07T03:28:57.560Z,79.07
2022-09-07T03:31:24.394Z,78.44
2022-09-07T03:33:51.079Z,78.93
2022-09-07T03:36:17.756Z,78.90
2022-09-07T03:38:44.511Z,78.77
2022-09-07T03:41:11.144Z,78.77
2022-09-07T03:43:37.712Z,79.23
2022-09-07T03:46:06.892Z,79.02
2022-09-07T03:48:35.152Z,79.57
2022-09-07T03:51:04.647Z,79.31
2022-09-07T03:53:32.908Z,79.65
2022-09-07T03:56:02.246Z,79.72
2022-09-07T03:58:30.492Z,79.66
2022-09-07T04:00:58.179Z,79.68
2022-09-07T04:03:25.339Z,79.53
2022-09-07T04:05:52.119Z,78.99
2022-09-07T04:08:18.859Z,79.02
2022-09-07T04:10:45.502Z,79.14
2022-09-07T04:13:12.094Z,79.30
2022-09-07T04:15:38.691Z,79.17
2022-09-07T04:18:05.365Z,79.26
2022-09-07T04:20:31.971Z,79.16
2022-09-07T04:22:58.596Z,79.22
2022-09-07T04:25:25.291Z,79.16
2022-09-07T04:27:51.939Z,79.31
2022-09-07T04:30:18.576Z,79.35
2022-09-07T04:32:46.727Z,79.07
2022-09-07T04:35:13.797Z,79.12
2022-09-07T04:37:40.507Z,78.49
2022-09-07T04:40:07.535Z,79.05
2022-09-07T04:42:34.193Z,78.80
2022-09-07T04:45:00.887Z,78.90
2022-09-07T04:47:30.715Z,79.44
2022-09-07T04:49:57.451Z,79.22
2022-09-07T04:52:24.661Z,78.85
2022-09-07T04:54:51.811Z,78.96
2022-09-07T04:57:21.841Z,79.16
2022-09-07T04:59:48.888Z,79.15
2022-09-07T05:02:15.929Z,79.27
2022-09-07T05:04:42.722Z,78.88
2022-09-07T05:07:09.479Z,79.19
2022-09-07T05:09:36.778Z,78.98
2022-09-07T05:12:03.434Z,78.92
2022-09-07T05:14:30.044Z,79.02
2022-09-07T05:16:56.690Z,79.15
2022-09-07T05:19:23.484Z,78.59
2022-09-07T05:21:50.119Z,78.61
2022-09-07T05:24:16.858Z,78.51
2022-09-07T05:26:43.503Z,79.00
2022-09-07T05:31:57.042Z,78.62
2022-09-07T05:34:32.321Z,78.23
2022-09-07T05:36:59.579Z,77.99
2022-09-07T05:39:26.974Z,78.58
2022-09-07T05:41:54.184Z,78.17
2022-09-07T05:47:07.720Z,78.31
2022-09-07T05:49:34.744Z,78.16
2022-09-07T05:52:01.378Z,77.60
2022-09-07T05:54:27.974Z,77.84
2022-09-07T05:56:54.606Z,78.02
2022-09-07T05:59:21.217Z,77.95
2022-09-07T06:01:47.919Z,77.93
2022-09-07T06:04:14.563Z,77.17
2022-09-07T06:06:41.259Z,77.21
2022-09-07T06:09:08.167Z,76.34
2022-09-07T06:11:36.479Z,76.02
2022-09-07T06:14:03.126Z,76.08
2022-09-07T06:16:33.315Z,75.96
2022-09-07T06:18:59.972Z,75.67
2022-09-07T06:21:26.852Z,76.05
2022-09-07T06:23:53.477Z,75.92
2022-09-07T06:26:20.252Z,75.38
2022-09-07T06:28:50.253Z,75.67
2022-09-07T06:31:22.914Z,75.43
2022-09-07T06:33:50.872Z,75.38
2022-09-07T06:36:20.060Z,75.44
2022-09-07T06:38:47.575Z,74.63
2022-09-07T06:44:09.376Z,73.68
2022-09-07T06:49:23.943Z,72.42
2022-09-07T06:51:50.556Z,71.60
2022-09-07T06:57:09.140Z,70.42
2022-09-07T06:59:36.758Z,70.33
2022-09-07T07:02:04.163Z,70.05
2022-09-07T07:04:31.822Z,69.95
2022-09-07T07:06:59.402Z,70.01
2022-09-07T07:09:26.079Z,70.46
2022-09-07T07:11:52.678Z,70.14
2022-09-07T07:14:19.357Z,70.34
2022-09-07T07:16:46.786Z,70.06
2022-09-07T07:19:13.644Z,70.73
2022-09-07T07:22:03.550Z,70.77
2022-09-07T07:24:26.834Z,71.08
2022-09-07T07:26:53.630Z,71.83
2022-09-07T07:29:21.926Z,71.35
2022-09-07T07:31:49.513Z,71.67
2022-09-07T07:34:16.188Z,71.77
2022-09-07T07:36:42.785Z,71.52
2022-09-07T07:41:58.999Z,71.56
2022-09-07T07:44:28.386Z,71.93
2022-09-07T07:46:54.969Z,72.01
2022-09-07T07:49:21.793Z,71.60
2022-09-07T07:54:38.473Z,70.26
2022-09-07T07:57:05.840Z,70.86
2022-09-07T07:59:32.601Z,70.56
2022-09-07T08:02:05.500Z,70.86
2022-09-07T08:04:35.749Z,71.04
2022-09-07T08:07:08.607Z,71.79
2022-09-07T08:09:37.357Z,72.59
2022-09-07T08:12:04.138Z,73.38
2022-09-07T08:14:30.734Z,73.65
2022-09-07T08:16:57.325Z,74.04
2022-09-07T08:19:23.839Z,73.97
2022-09-07T08:21:50.302Z,74.30
2022-09-07T08:24:16.841Z,74.70
2022-09-07T08:26:43.400Z,75.18
2022-09-07T08:29:09.898Z,74.67
2022-09-07T08:31:36.493Z,75.35
2022-09-07T08:34:03.070Z,75.39
2022-09-07T08:36:31.854Z,75.87
2022-09-07T08:38:58.430Z,76.26
2022-09-07T08:41:30.768Z,76.83
2022-09-07T08:44:00.423Z,76.75
2022-09-07T08:46:36.182Z,76.47
2022-09-07T08:49:06.141Z,76.54
2022-09-07T08:51:46.878Z,76.50
2022-09-07T08:54:16.712Z,75.93
2022-09-07T09:00:14.472Z,76.09
2022-09-07T09:02:44.260Z,76.02
2022-09-07T09:05:20.285Z,75.10
2022-09-07T09:08:15.717Z,75.41
2022-09-07T09:11:11.639Z,75.49
2022-09-07T09:13:56.921Z,74.88
2022-09-07T09:16:35.858Z,74.28
2022-09-07T09:19:24.672Z,73.62
2022-09-07T09:22:07.740Z,72.87
2022-09-07T09:24:37.794Z,73.28
2022-09-07T09:27:04.427Z,73.03
2022-09-07T09:29:30.918Z,73.17
2022-09-07T09:31:57.457Z,72.25
2022-09-07T09:34:29.329Z,70.82
2022-09-07T09:36:57.901Z,70.74
2022-09-07T09:39:37.277Z,69.59
2022-09-07T09:42:23.784Z,68.55
2022-09-07T09:44:50.907Z,67.81
2022-09-07T09:47:30.234Z,68.37
2022-09-07T09:49:59.652Z,68.26
2022-09-07T09:52:36.981Z,68.24
2022-09-07T09:55:35.894Z,68.45
2022-09-07T10:01:33.557Z,68.13
2022-09-07T10:04:27.998Z,66.73
2022-09-07T10:07:06.103Z,66.51
2022-09-07T10:09:40.099Z,66.08
2022-09-07T10:12:08.821Z,64.94
2022-09-07T10:14:42.270Z,64.18
2022-09-07T10:17:25.718Z,64.52
2022-09-07T10:19:52.614Z,65.12
2022-09-07T10:22:31.243Z,64.86
2022-09-07T10:25:00.931Z,64.03
2022-09-07T10:27:30.129Z,64.11
2022-09-07T10:29:57.270Z,64.09
2022-09-07T10:32:52.825Z,64.72
2022-09-07T10:35:38.707Z,64.62
2022-09-07T10:38:28.895Z,64.34
2022-09-07T10:41:09.785Z,64.81
2022-09-07T10:43:42.416Z,64.70
2022-09-07T10:46:58.755Z,64.70
2022-09-07T10:52:41.727Z,64.64
2022-09-07T10:55:20.315Z,64.56
2022-09-07T10:58:03.054Z,64.66
2022-09-07T11:00:58.751Z,65.09
2022-09-07T11:03:53.069Z,64.25
2022-09-07T11:06:30.345Z,65.21
2022-09-07T11:09:18.599Z,64.41
2022-09-07T11:12:04.338Z,63.18
2022-09-07T11:14:38.817Z,62.48
2022-09-07T11:17:18.608Z,62.60
2022-09-07T11:19:47.990Z,62.29
2022-09-07T11:22:18.079Z,62.19
2022-09-07T11:27:51.313Z,61.67
2022-09-07T11:30:21.687Z,62.14
2022-09-07T11:32:55.466Z,61.47
2022-09-07T11:35:47.281Z,61.51
2022-09-07T11:38:29.021Z,61.48
2022-09-07T11:41:06.342Z,61.05
2022-09-07T11:43:41.348Z,60.79
2022-09-07T11:46:15.873Z,60.62
2022-09-07T11:48:58.003Z,60.65
2022-09-07T11:51:44.956Z,61.35
2022-09-07T11:54:17.381Z,60.55
2022-09-07T11:56:50.377Z,60.64
2022-09-07T11:59:36.759Z,60.30
2022-09-07T12:02:36.700Z,60.40
2022-09-07T12:05:23.724Z,60.07
2022-09-07T12:07:50.290Z,60.34
2022-09-07T12:10:35.740Z,60.05
2022-09-07T12:13:20.625Z,59.74
2022-09-07T12:15:59.470Z,59.78
2022-09-07T12:18:41.326Z,60.21
2022-09-07T12:21:30.853Z,60.26
2022-09-07T12:23:57.666Z,59.80
2022-09-07T12:26:33.605Z,59.15
2022-09-07T12:29:00.087Z,58.07
2022-09-07T12:31:57.795Z,58.39
2022-09-07T12:34:31.288Z,58.53
2022-09-07T12:37:10.099Z,58.34
2022-09-07T12:39:43.426Z,57.95
2022-09-07T12:45:30.999Z,56.78
2022-09-07T12:48:00.095Z,55.84
2022-09-07T12:50:29.579Z,56.02
2022-09-07T12:53:28.062Z,56.07
2022-09-07T12:56:16.291Z,55.63
2022-09-07T12:59:31.434Z,54.97
2022-09-07T13:02:35.401Z,55.28
2022-09-07T13:05:24.773Z,54.39
2022-09-07T13:08:09.719Z,53.14
2022-09-07T13:10:39.737Z,53.12
2022-09-07T13:13:14.683Z,51.77
2022-09-07T13:16:14.951Z,51.19
2022-09-07T13:18:46.425Z,50.55
2022-09-07T13:21:15.337Z,50.20
2022-09-07T13:23:45.508Z,49.96
2022-09-07T13:26:51.306Z,49.74
2022-09-07T13:29:24.103Z,49.10
2022-09-07T13:31:50.682Z,49.71
2022-09-07T13:34:37.531Z,50.17
2022-09-07T13:37:19.593Z,50.16
2022-09-07T13:39:48.579Z,50.49
2022-09-07T13:42:18.729Z,50.14
2022-09-07T13:44:54.684Z,50.20
2022-09-07T13:47:32.644Z,49.33
2022-09-07T13:49:59.131Z,49.08
2022-09-07T13:52:40.756Z,48.97
2022-09-07T13:55:28.378Z,48.93
2022-09-07T13:58:13.020Z,49.10
2022-09-07T14:00:55.034Z,48.81
2022-09-07T14:03:24.371Z,47.89
2022-09-07T14:06:17.094Z,47.42
2022-09-07T14:08:50.841Z,47.63
2022-09-07T14:11:23.710Z,47.83
2022-09-07T14:14:12.253Z,48.30
2022-09-07T14:16:39.064Z,48.57
2022-09-07T14:19:17.255Z,47.67
2022-09-07T14:21:43.996Z,46.99
2022-09-07T14:24:32.219Z,46.39
2022-09-07T14:27:00.191Z,46.09
2022-09-07T14:29:31.286Z,45.78
2022-09-07T14:32:00.124Z,46.03
2022-09-07T14:34:31.281Z,45.06
2022-09-07T14:37:02.305Z,44.24
2022-09-07T14:39:30.131Z,43.08
2022-09-07T14:41:58.890Z,42.59
2022-09-07T14:44:34.188Z,42.75
2022-09-07T14:47:06.034Z,42.58
2022-09-07T14:49:32.876Z,41.84
2022-09-07T14:52:00.660Z,41.83
2022-09-07T14:54:34.269Z,41.46
2022-09-07T14:57:05.652Z,41.37
2022-09-07T14:59:37.145Z,40.85
2022-09-07T15:02:19.493Z,42.03
2022-09-07T15:04:47.431Z,41.84
2022-09-07T15:07:37.737Z,41.75
2022-09-07T15:10:23.705Z,42.08
2022-09-07T15:13:01.322Z,42.87
2022-09-07T15:15:30.392Z,43.35
2022-09-07T15:18:08.536Z,43.72
2022-09-07T15:20:38.704Z,43.87
2022-09-07T15:23:18.461Z,44.55
2022-09-07T15:25:51.136Z,44.69
2022-09-07T15:34:11.514Z,44.81
2022-09-07T15:36:40.783Z,44.67
2022-09-07T15:39:14.306Z,44.62
2022-09-07T15:41:40.803Z,44.37
2022-09-07T15:44:07.645Z,45.26
2022-09-07T15:46:36.673Z,44.92
2022-09-07T15:49:03.789Z,44.72
2022-09-07T15:54:17.257Z,44.93
2022-09-07T15:57:47.672Z,44.52
2022-09-07T15:59:30.650Z,44.57
2022-09-07T16:01:58.240Z,45.18
2022-09-07T16:04:28.460Z,45.35
2022-09-07T16:06:55.068Z,45.47
2022-09-07T16:09:22.109Z,45.65
2022-09-07T16:11:50.118Z,45.54
2022-09-07T16:14:18.774Z,45.99
2022-09-07T16:19:34.947Z,46.48
2022-09-07T16:22:02.154Z,46.46
2022-09-07T16:24:28.820Z,46.82
2022-09-07T16:26:55.525Z,46.64
2022-09-07T16:29:22.072Z,46.68
2022-09-07T16:34:35.266Z,46.90
2022-09-07T16:37:01.851Z,47.47
2022-09-07T16:39:32.078Z,46.98
2022-09-07T16:42:00.089Z,47.06
2022-09-07T16:44:26.813Z,47.13
2022-09-07T16:46:53.383Z,47.60
2022-09-07T16:49:20.027Z,47.54
2022-09-07T16:51:46.637Z,47.40
2022-09-07T16:54:14.355Z,46.99
2022-09-07T16:56:40.875Z,47.20
2022-09-07T16:59:11.608Z,47.09
2022-09-07T17:01:38.486Z,47.39
2022-09-07T17:04:10.313Z,47.91
2022-09-07T17:06:37.515Z,47.44
2022-09-07T17:09:04.262Z,47.55
2022-09-07T17:11:34.033Z,47.77
2022-09-07T17:14:01.318Z,47.96
2022-09-07T17:16:30.797Z,48.18
2022-09-07T17:21:46.516Z,49.08
2022-09-07T17:24:13.132Z,48.89
2022-09-07T17:26:42.324Z,48.60
2022-09-07T17:29:10.446Z,48.57
2022-09-07T17:34:24.560Z,49.36
2022-09-07T17:36:51.630Z,49.02
2022-09-07T17:39:19.336Z,49.09
2022-09-07T17:41:48.441Z,49.51
2022-09-07T17:44:15.295Z,49.23
2022-09-07T17:46:41.799Z,50.18
2022-09-07T17:49:16.649Z,50.31
2022-09-07T17:51:44.005Z,50.27
2022-09-07T17:54:14.373Z,50.33
2022-09-07T17:56:42.020Z,50.65
2022-09-07T18:01:56.570Z,51.53
2022-09-07T18:04:23.650Z,52.19
2022-09-07T18:06:50.711Z,52.62
2022-09-07T18:09:17.600Z,53.47
2022-09-07T18:11:45.735Z,53.44
2022-09-07T18:14:14.715Z,54.34
2022-09-07T18:16:42.551Z,54.39
2022-09-07T18:19:11.118Z,54.68
2022-09-07T18:21:39.323Z,54.90
2022-09-07T18:24:13.523Z,54.86
2022-09-07T18:26:40.914Z,55.54
2022-09-07T18:29:25.810Z,55.98
2022-09-07T18:31:54.599Z,56.42
2022-09-07T18:34:21.369Z,56.46
2022-09-07T18:36:48.060Z,56.55
2022-09-07T18:39:14.722Z,56.85
2022-09-07T18:41:42.209Z,57.20
2022-09-07T18:46:55.924Z,57.44
2022-09-07T18:49:22.532Z,57.87
2022-09-07T18:54:35.764Z,58.31
2022-09-07T18:57:02.221Z,58.15
2022-09-07T18:59:29.810Z,58.03
2022-09-07T19:02:01.306Z,58.19
2022-09-07T19:07:17.747Z,58.74
2022-09-07T19:09:44.280Z,59.04
2022-09-07T19:12:10.756Z,58.85
2022-09-07T19:14:37.413Z,59.79
2022-09-07T19:17:04.019Z,59.96
2022-09-07T19:19:30.643Z,60.05
2022-09-07T19:21:58.344Z,60.35
2022-09-07T19:24:25.801Z,60.44
2022-09-07T19:26:55.699Z,60.86
2022-09-07T19:29:25.245Z,60.62
2022-09-07T19:32:06.762Z,61.00
2022-09-07T19:34:35.758Z,61.46
2022-09-07T19:37:02.894Z,61.63
2022-09-07T19:39:29.450Z,62.01
2022-09-07T19:41:56.316Z,62.17
2022-09-07T19:44:22.845Z,62.23
2022-09-07T19:46:49.563Z,62.84
2022-09-07T19:49:16.346Z,62.59
2022-09-07T19:51:45.263Z,63.53
2022-09-07T19:54:13.288Z,63.45
2022-09-07T19:56:42.779Z,63.48
2022-09-07T19:59:10.024Z,63.61
2022-09-07T20:01:37.914Z,63.73
2022-09-07T20:04:07.422Z,63.93
2022-09-07T20:06:38.058Z,64.46
2022-09-07T20:09:05.150Z,64.33
2022-09-07T20:11:32.654Z,64.54
2022-09-07T20:13:59.439Z,64.40
2022-09-07T20:16:28.106Z,64.90
2022-09-07T20:18:54.804Z,65.33
2022-09-07T20:21:23.574Z,65.17
2022-09-07T20:23:51.063Z,65.87
2022-09-07T20:26:20.037Z,65.67
2022-09-07T20:29:01.935Z,65.93
2022-09-07T20:31:38.788Z,66.28
2022-09-07T20:34:05.590Z,66.80
2022-09-07T20:36:32.318Z,66.90
2022-09-07T20:38:58.785Z,66.99
2022-09-07T20:41:31.284Z,67.21
2022-09-07T20:44:00.180Z,67.63
2022-09-07T20:46:28.421Z,68.00
2022-09-07T20:48:55.238Z,68.27
2022-09-07T20:51:22.159Z,67.75
2022-09-07T20:53:49.329Z,67.98
2022-09-07T20:56:24.876Z,67.37
2022-09-07T20:59:02.496Z,67.84
2022-09-07T21:01:31.493Z,68.18
2022-09-07T21:04:00.882Z,68.52
2022-09-07T21:06:28.763Z,68.76
2022-09-07T21:08:57.901Z,68.71
2022-09-07T21:11:35.228Z,68.42
2022-09-07T21:14:22.600Z,68.22
2022-09-07T21:16:49.080Z,68.43
2022-09-07T21:19:15.805Z,67.95
2022-09-07T21:21:43.057Z,68.08
2022-09-07T21:24:21.907Z,68.31
2022-09-07T21:26:49.792Z,68.10
2022-09-07T21:29:23.353Z,67.99
2022-09-07T21:31:50.438Z,67.44
2022-09-07T21:34:17.236Z,67.82
2022-09-07T21:36:43.879Z,67.85
2022-09-07T21:39:13.810Z,67.83
2022-09-07T21:41:41.292Z,68.07
2022-09-07T21:44:07.852Z,68.02
2022-09-07T21:46:34.435Z,68.13
2022-09-07T21:49:01.190Z,67.92
2022-09-07T21:51:28.159Z,68.13
2022-09-07T21:53:59.446Z,68.58
2022-09-07T21:56:30.325Z,68.45
2022-09-07T21:58:58.973Z,68.44
2022-09-07T22:01:27.126Z,68.32
2022-09-07T22:03:56.430Z,68.63
2022-09-07T22:06:23.841Z,67.80
2022-09-07T22:08:50.969Z,67.87
2022-09-07T22:11:20.197Z,67.15
2022-09-07T22:13:47.050Z,67.90
2022-09-07T22:16:15.085Z,67.85
2022-09-07T22:18:46.168Z,67.25
2022-09-07T22:21:18.992Z,67.42
2022-09-07T22:23:48.724Z,66.43
2022-09-07T22:26:19.157Z,67.09
2022-09-07T22:28:45.755Z,67.05
2022-09-07T22:31:24.477Z,67.66
2022-09-07T22:33:52.492Z,67.29
2022-09-07T22:36:21.918Z,67.03
2022-09-07T22:38:52.167Z,67.27
2022-09-07T22:41:20.967Z,67.05
2022-09-07T22:43:50.851Z,67.29
2022-09-07T22:46:19.827Z,66.63
2022-09-07T22:48:46.732Z,67.03
2022-09-07T22:51:13.359Z,66.99
2022-09-07T22:53:41.810Z,67.17
2022-09-07T22:56:09.679Z,67.25
2022-09-07T22:58:37.520Z,67.30
2022-09-07T23:01:05.712Z,66.99
2022-09-07T23:03:34.534Z,67.15
2022-09-07T23:06:01.587Z,66.95
2022-09-07T23:08:28.219Z,66.23
2022-09-07T23:10:54.724Z,67.02
2022-09-07T23:13:21.330Z,67.11
2022-09-07T23:15:48.417Z,66.90
2022-09-07T23:18:16.693Z,67.24
2022-09-07T23:20:43.345Z,67.24
2022-09-07T23:23:10.600Z,67.46
2022-09-07T23:25:38.163Z,67.25
2022-09-07T23:28:07.299Z,66.81
2022-09-07T23:30:35.728Z,66.84
2022-09-07T23:33:02.979Z,66.90
2022-09-07T23:35:29.784Z,67.14
2022-09-07T23:37:56.902Z,67.48
2022-09-07T23:40:23.925Z,67.38
2022-09-07T23:42:50.551Z,67.74
2022-09-07T23:45:17.146Z,67.85
2022-09-07T23:47:44.004Z,67.76
2022-09-07T23:50:10.973Z,68.06
2022-09-07T23:52:38.002Z,67.86
2022-09-07T23:55:04.859Z,67.74
2022-09-07T23:57:31.662Z,67.88
2022-09-07T23:59:58.872Z,67.60
